createdAt,value
2023-03-16T00:02:13.198Z,53.10
2023-03-16T00:12:21.443Z,63.90
2023-03-16T00:22:28.411Z,34.20
2023-03-16T00:32:37.563Z,34.00
2023-03-16T00:42:45.213Z,34.10
2023-03-16T00:52:49.720Z,34.50
2023-03-16T01:02:55.473Z,36.70
2023-03-16T01:12:59.251Z,36.10
2023-03-16T01:23:02.864Z,38.60
2023-03-16T01:33:08.611Z,30.20
2023-03-16T01:43:14.183Z,31.00
2023-03-16T01:53:25.173Z,27.40
2023-03-16T02:03:37.262Z,34.20
2023-03-16T02:13:53.000Z,28.10
2023-03-16T02:23:57.556Z,27.90
2023-03-16T02:34:02.184Z,35.90
2023-03-16T02:44:16.380Z,42.00
2023-03-16T02:54:20.754Z,27.60
2023-03-16T03:04:25.134Z,29.50
2023-03-16T03:14:28.848Z,29.70
2023-03-16T03:24:34.855Z,26.60
2023-03-16T03:34:40.075Z,31.10
2023-03-16T03:44:47.903Z,39.50
2023-03-16T03:54:51.714Z,31.30
2023-03-16T04:04:57.235Z,22.40
2023-03-16T04:15:07.451Z,20.40
2023-03-16T04:25:18.933Z,19.00
2023-03-16T04:35:23.172Z,19.80
2023-03-16T04:45:33.046Z,23.00
2023-03-16T04:55:39.148Z,30.50
2023-03-16T05:05:43.684Z,20.30
2023-03-16T05:15:50.016Z,20.30
2023-03-16T05:26:04.588Z,18.90
2023-03-16T05:36:09.640Z,19.50
2023-03-16T05:46:18.947Z,20.10
2023-03-16T05:56:28.465Z,25.60
2023-03-16T06:06:33.281Z,21.80
2023-03-16T06:16:43.264Z,26.00
2023-03-16T06:26:47.506Z,26.10
2023-03-16T06:36:51.624Z,23.70
2023-03-16T06:46:59.131Z,21.20
2023-03-16T06:57:05.577Z,17.30
2023-03-16T07:07:12.261Z,17.00
2023-03-16T07:17:17.470Z,16.50
2023-03-16T07:27:23.566Z,11.80
2023-03-16T07:37:29.143Z,11.40
2023-03-16T07:47:34.935Z,10.10
2023-03-16T07:57:48.470Z,11.00
2023-03-16T08:07:59.346Z,12.10
2023-03-16T08:18:05.912Z,10.80
2023-03-16T08:28:13.024Z,11.30
2023-03-16T08:38:19.469Z,10.40
2023-03-16T08:48:26.918Z,7.80
2023-03-16T08:58:34.341Z,8.00
2023-03-16T09:08:41.068Z,7.70
2023-03-16T09:18:47.404Z,4.80
2023-03-16T09:29:14.977Z,5.60
2023-03-16T09:39:25.632Z,5.60
2023-03-16T09:49:50.348Z,6.30
2023-03-16T10:00:11.582Z,6.70
2023-03-16T10:10:33.534Z,7.50
2023-03-16T10:20:42.220Z,5.90
2023-03-16T10:30:53.945Z,6.50
2023-03-16T10:41:01.036Z,6.00
2023-03-16T10:51:15.379Z,6.40
2023-03-16T11:01:29.918Z,6.80
2023-03-16T11:11:34.317Z,6.00
2023-03-16T11:21:48.834Z,6.90
2023-03-16T11:31:58.088Z,7.80
2023-03-16T11:42:20.926Z,6.80
2023-03-16T11:53:12.521Z,7.70
2023-03-16T12:15:19.673Z,5.50
2023-03-16T12:25:34.835Z,8.50
2023-03-16T12:36:05.639Z,4.80
2023-03-16T12:46:54.476Z,5.10
2023-03-16T12:57:09.855Z,5.50
2023-03-16T13:07:25.781Z,5.10
2023-03-16T13:17:41.181Z,5.40
2023-03-16T13:27:50.273Z,4.90
2023-03-16T13:37:57.509Z,5.40
2023-03-16T13:48:05.685Z,6.60
2023-03-16T13:58:23.704Z,6.80
2023-03-16T14:08:28.504Z,6.10
2023-03-16T14:18:46.499Z,6.80
2023-03-16T14:28:58.786Z,7.30
2023-03-16T14:39:13.812Z,6.70
2023-03-16T14:49:43.248Z,7.70
2023-03-16T14:59:47.941Z,7.70
2023-03-16T15:09:55.410Z,7.80
2023-03-16T15:19:59.494Z,43.10
2023-03-16T15:30:20.113Z,8.60
2023-03-16T15:40:28.119Z,8.40
2023-03-16T15:50:36.245Z,8.00
2023-03-16T16:00:42.188Z,8.10
2023-03-16T16:10:47.602Z,8.80
2023-03-16T16:20:51.589Z,7.50
2023-03-16T17:08:59.412Z,9.50
2023-03-16T17:19:04.872Z,10.60
2023-03-16T17:42:48.897Z,18.10
2023-03-16T17:52:56.478Z,23.70
2023-03-16T18:03:15.224Z,29.60
2023-03-16T18:13:27.336Z,27.90
2023-03-16T18:23:36.271Z,16.60
2023-03-16T18:33:42.248Z,27.10
2023-03-16T18:43:47.740Z,43.30
2023-03-16T18:54:03.543Z,28.30
2023-03-16T19:04:40.085Z,37.40
2023-03-16T19:14:44.120Z,29.60
2023-03-16T19:24:53.052Z,21.80
2023-03-16T19:34:59.245Z,22.60
2023-03-16T19:45:10.219Z,18.80
2023-03-16T19:55:23.278Z,15.10
2023-03-16T20:05:29.875Z,13.70
2023-03-16T20:15:36.731Z,13.70
2023-03-16T20:25:42.452Z,26.50
2023-03-16T20:35:56.807Z,23.30
2023-03-16T20:46:04.288Z,20.70
2023-03-16T20:56:20.459Z,28.10
2023-03-16T21:06:30.172Z,29.30
2023-03-16T21:16:36.801Z,44.50
2023-03-16T21:26:43.256Z,38.10
2023-03-16T21:36:46.994Z,27.00
2023-03-16T21:46:54.104Z,21.70
2023-03-16T21:57:02.466Z,31.20
2023-03-16T22:07:12.620Z,21.40
2023-03-16T22:17:23.000Z,54.40
2023-03-16T22:27:26.628Z,77.90
2023-03-16T22:37:30.536Z,111.20
2023-03-16T22:47:37.130Z,68.80
2023-03-16T22:57:41.106Z,59.10
2023-03-16T23:07:48.581Z,60.20
2023-03-16T23:17:53.043Z,59.50
2023-03-16T23:28:02.904Z,63.90
2023-03-16T23:38:08.634Z,35.50
2023-03-16T23:48:22.654Z,47.20
2023-03-16T23:58:27.020Z,46.10
